Time;durP1;ratioP1;P1;durP2;ratioP2;P2;SDS_P1;SDS_P2;PMS_P1;PMS_P2;Temp;Humidity;BMP_temperature;BMP_pressure;BME280_temperature;BME280_humidity;BME280_pressure;Samples;Min_cycle;Max_cycle;Signal;HPM_P1;HPM_P2
2022/01/06 00:01:59;;;;;;;12.00;1.52;;;;;;;;;;5089598;28;20043;-79
2022/01/06 00:04:25;;;;;;;9.90;1.23;;;;;;;;;;5089742;28;20047;-77
2022/01/06 00:06:51;;;;;;;14.98;2.08;;;;;;;;;;5074015;28;20085;-77
2022/01/06 00:09:18;;;;;;;7.15;1.38;;;;;;;;;;5090113;28;20136;-78
2022/01/06 00:11:45;;;;;;;7.43;1.25;;;;;;;;;;5091652;28;20148;-78
2022/01/06 00:14:19;;;;;;;11.30;1.63;;;;;;;;;;5074109;28;20055;-76
2022/01/06 00:24:48;;;;;;;11.90;1.80;;;;;;;;;;5107904;28;20480;-78
2022/01/06 00:27:14;;;;;;;10.13;1.58;;;;;;;;;;5077952;28;20033;-80
2022/01/06 00:29:41;;;;;;;16.52;1.55;;;;;;;;;;5071364;28;20044;-79
2022/01/06 00:32:07;;;;;;;12.25;1.42;;;;;;;;;;5071092;28;20076;-80
2022/01/06 00:34:33;;;;;;;11.07;1.70;;;;;;;;;;5079988;28;20040;-76
2022/01/06 00:37:01;;;;;;;6.43;1.10;;;;;;;;;;5093917;28;20044;-77
2022/01/06 00:39:27;;;;;;;10.10;1.42;;;;;;;;;;5109665;28;20044;-78
2022/01/06 00:41:56;;;;;;;12.13;2.13;;;;;;;;;;5093131;28;20042;-77
2022/01/06 00:44:22;;;;;;;10.18;1.45;;;;;;;;;;5094682;28;20044;-76
2022/01/06 00:46:48;;;;;;;6.88;1.27;;;;;;;;;;5096583;28;20032;-77
2022/01/06 00:49:14;;;;;;;4.43;1.20;;;;;;;;;;5092322;28;20046;-77
2022/01/06 00:51:40;;;;;;;8.52;1.60;;;;;;;;;;5091039;28;20052;-78
2022/01/06 00:54:06;;;;;;;6.45;1.20;;;;;;;;;;5090625;28;20046;-78
2022/01/06 00:56:32;;;;;;;8.70;1.85;;;;;;;;;;5090443;28;20048;-77
2022/01/06 00:58:58;;;;;;;6.60;1.25;;;;;;;;;;5091324;28;20047;-78
2022/01/06 01:01:24;;;;;;;14.20;1.63;;;;;;;;;;5090724;28;20071;-78
2022/01/06 01:03:50;;;;;;;9.00;1.05;;;;;;;;;;5090423;28;20036;-76
2022/01/06 01:06:16;;;;;;;6.20;1.70;;;;;;;;;;5110682;28;20044;-77
2022/01/06 01:08:42;;;;;;;8.77;1.17;;;;;;;;;;5093644;28;20435;-76
2022/01/06 01:11:08;;;;;;;6.63;1.05;;;;;;;;;;5110524;28;20043;-76
2022/01/06 01:13:42;;;;;;;7.35;1.55;;;;;;;;;;5093693;28;20127;-76
2022/01/06 01:16:21;;;;;;;13.20;1.40;;;;;;;;;;5110847;28;20084;-76
2022/01/06 01:18:48;;;;;;;9.07;1.92;;;;;;;;;;5110418;28;20043;-76
2022/01/06 01:21:14;;;;;;;7.50;1.33;;;;;;;;;;5110252;28;20051;-76
2022/01/06 01:23:40;;;;;;;7.65;1.80;;;;;;;;;;5088788;28;20044;-76
2022/01/06 01:26:06;;;;;;;16.63;1.63;;;;;;;;;;5090152;28;20408;-76
2022/01/06 01:28:42;;;;;;;12.88;1.83;;;;;;;;;;5075296;28;20053;-76
2022/01/06 01:31:23;;;;;;;14.75;2.00;;;;;;;;;;5069727;28;20446;-76
2022/01/06 01:33:50;;;;;;;11.63;1.23;;;;;;;;;;5070235;28;20114;-75
2022/01/06 01:36:16;;;;;;;2.25;0.60;;;;;;;;;;5109736;28;20402;-76
2022/01/06 01:38:43;;;;;;;9.45;1.63;;;;;;;;;;5109805;28;20052;-76
2022/01/06 01:41:09;;;;;;;4.32;1.02;;;;;;;;;;5093090;28;20043;-76
2022/01/06 01:43:35;;;;;;;11.13;1.83;;;;;;;;;;5095371;28;20031;-76
2022/01/06 01:46:10;;;;;;;6.63;1.42;;;;;;;;;;5096874;28;20043;-76
2022/01/06 01:48:39;;;;;;;9.90;1.50;;;;;;;;;;5113866;28;20043;-76
2022/01/06 01:51:08;;;;;;;6.80;1.50;;;;;;;;;;5096696;28;20474;-76
2022/01/06 01:53:35;;;;;;;5.97;1.38;;;;;;;;;;5096950;28;20036;-76
2022/01/06 01:56:01;;;;;;;6.53;1.30;;;;;;;;;;5096922;28;20501;-76
2022/01/06 01:58:27;;;;;;;7.07;1.73;;;;;;;;;;5096504;28;20043;-76
2022/01/06 02:00:53;;;;;;;10.20;1.60;;;;;;;;;;5096951;28;20128;-77
2022/01/06 02:03:19;;;;;;;3.70;0.60;;;;;;;;;;5096635;28;20039;-76
2022/01/06 02:05:44;;;;;;;9.77;1.15;;;;;;;;;;5095363;28;20542;-76
2022/01/06 02:08:11;;;;;;;6.90;0.85;;;;;;;;;;5076526;28;20472;-76
2022/01/06 02:10:37;;;;;;;8.35;1.73;;;;;;;;;;5092908;28;20091;-76
2022/01/06 02:13:04;;;;;;;8.02;1.20;;;;;;;;;;5092888;28;20079;-75
2022/01/06 02:15:30;;;;;;;11.07;1.80;;;;;;;;;;5093350;28;20491;-76
2022/01/06 02:17:56;;;;;;;11.32;1.23;;;;;;;;;;5093043;28;20072;-75
2022/01/06 02:20:22;;;;;;;8.60;1.15;;;;;;;;;;5092731;28;20097;-75
2022/01/06 02:22:49;;;;;;;4.18;1.23;;;;;;;;;;5092752;28;20441;-75
2022/01/06 02:25:16;;;;;;;6.05;1.20;;;;;;;;;;5076095;28;20043;-75
2022/01/06 02:27:43;;;;;;;10.98;1.30;;;;;;;;;;5076044;28;20639;-75
2022/01/06 02:30:10;;;;;;;7.32;1.30;;;;;;;;;;5075780;28;20135;-75
2022/01/06 02:32:37;;;;;;;7.88;1.67;;;;;;;;;;5092548;28;20075;-75
2022/01/06 02:35:04;;;;;;;11.20;1.73;;;;;;;;;;5101844;28;20048;-75
2022/01/06 02:37:30;;;;;;;8.63;1.25;;;;;;;;;;5112824;28;20097;-75
2022/01/06 02:39:56;;;;;;;12.18;1.45;;;;;;;;;;5095503;28;20071;-75
2022/01/06 02:42:23;;;;;;;10.40;1.20;;;;;;;;;;5112680;28;20449;-75
2022/01/06 02:44:49;;;;;;;8.73;0.93;;;;;;;;;;5095692;28;20038;-75
2022/01/06 02:47:15;;;;;;;11.68;1.30;;;;;;;;;;5112851;28;20483;-74
2022/01/06 02:49:41;;;;;;;12.40;1.13;;;;;;;;;;5095570;28;20031;-74
2022/01/06 02:52:07;;;;;;;7.30;1.70;;;;;;;;;;5112491;28;20035;-75
2022/01/06 02:54:33;;;;;;;8.85;0.75;;;;;;;;;;5111610;28;20124;-75
2022/01/06 02:56:59;;;;;;;6.15;1.15;;;;;;;;;;5095623;28;20036;-74
2022/01/06 02:59:25;;;;;;;5.10;1.17;;;;;;;;;;5095612;28;20491;-74
2022/01/06 03:01:51;;;;;;;4.47;1.00;;;;;;;;;;5112490;28;20041;-74
2022/01/06 03:04:17;;;;;;;3.13;0.82;;;;;;;;;;5089458;28;20384;-74
2022/01/06 03:06:43;;;;;;;3.33;0.82;;;;;;;;;;5091946;28;20032;-75
2022/01/06 03:09:09;;;;;;;6.03;1.90;;;;;;;;;;5075090;28;20446;-75
2022/01/06 03:11:40;;;;;;;6.80;1.27;;;;;;;;;;5091701;28;20055;-76
2022/01/06 03:14:07;;;;;;;12.32;1.17;;;;;;;;;;5091647;28;20048;-76
2022/01/06 03:16:33;;;;;;;15.63;2.40;;;;;;;;;;5075023;28;20047;-76
2022/01/06 03:18:59;;;;;;;7.88;1.38;;;;;;;;;;5074842;28;20092;-76
2022/01/06 03:21:25;;;;;;;8.13;1.30;;;;;;;;;;5074660;28;20047;-75
2022/01/06 03:23:50;;;;;;;6.97;1.30;;;;;;;;;;5091781;28;20085;-76
2022/01/06 03:26:16;;;;;;;12.25;1.40;;;;;;;;;;5074751;28;20036;-75
2022/01/06 03:28:42;;;;;;;8.80;1.50;;;;;;;;;;5074888;28;20444;-75
2022/01/06 03:31:08;;;;;;;9.18;1.13;;;;;;;;;;5074457;28;20036;-75
2022/01/06 03:33:34;;;;;;;8.85;1.40;;;;;;;;;;5091562;28;20043;-74
2022/01/06 03:36:00;;;;;;;11.88;1.42;;;;;;;;;;5072016;28;20042;-74
2022/01/06 03:38:26;;;;;;;6.22;1.10;;;;;;;;;;5090987;28;20831;-75
2022/01/06 03:40:52;;;;;;;8.48;1.33;;;;;;;;;;5074109;28;20093;-75
2022/01/06 03:43:19;;;;;;;9.88;1.60;;;;;;;;;;5090744;28;20032;-74
2022/01/06 03:45:45;;;;;;;8.90;1.02;;;;;;;;;;5091202;28;20040;-74
2022/01/06 03:48:11;;;;;;;27.08;1.48;;;;;;;;;;5090923;28;20036;-74
2022/01/06 03:50:37;;;;;;;20.25;3.08;;;;;;;;;;5090639;28;20126;-75
2022/01/06 03:53:03;;;;;;;9.23;1.33;;;;;;;;;;5090727;28;20041;-75
2022/01/06 03:55:29;;;;;;;9.10;1.20;;;;;;;;;;5090899;28;20138;-74
2022/01/06 03:57:55;;;;;;;8.40;1.35;;;;;;;;;;5090729;28;20051;-74
2022/01/06 04:00:22;;;;;;;11.18;1.05;;;;;;;;;;5090499;28;20503;-74
2022/01/06 04:02:48;;;;;;;10.90;1.02;;;;;;;;;;5074159;28;20075;-74
2022/01/06 04:05:14;;;;;;;7.30;0.90;;;;;;;;;;5090584;28;20082;-74
2022/01/06 04:07:41;;;;;;;11.20;1.25;;;;;;;;;;5090673;28;20134;-74
2022/01/06 04:10:08;;;;;;;4.05;0.70;;;;;;;;;;5090351;28;20040;-74
2022/01/06 04:12:35;;;;;;;9.30;1.25;;;;;;;;;;5073222;28;20134;-74
2022/01/06 04:15:01;;;;;;;9.75;1.35;;;;;;;;;;5090319;28;20190;-74
2022/01/06 04:17:27;;;;;;;6.75;1.08;;;;;;;;;;5073405;28;20445;-74
2022/01/06 04:19:53;;;;;;;5.35;1.05;;;;;;;;;;5090285;28;20131;-74
2022/01/06 04:22:19;;;;;;;10.55;1.27;;;;;;;;;;5073611;28;20166;-74
2022/01/06 04:24:45;;;;;;;7.63;0.90;;;;;;;;;;5073574;28;20044;-74
2022/01/06 04:27:12;;;;;;;6.15;1.08;;;;;;;;;;5073214;28;20047;-74
2022/01/06 04:29:38;;;;;;;5.78;1.40;;;;;;;;;;5073277;28;20066;-74
2022/01/06 04:32:04;;;;;;;8.50;1.40;;;;;;;;;;5090058;28;20040;-74
2022/01/06 04:34:30;;;;;;;6.47;1.45;;;;;;;;;;5073506;28;20048;-74
2022/01/06 04:36:58;;;;;;;6.28;1.15;;;;;;;;;;5090183;28;20043;-74
2022/01/06 04:39:24;;;;;;;5.65;1.05;;;;;;;;;;5089905;28;20055;-74
2022/01/06 04:41:50;;;;;;;10.52;1.20;;;;;;;;;;5089982;28;20071;-74
2022/01/06 04:44:16;;;;;;;10.68;1.77;;;;;;;;;;5089848;28;20036;-74
2022/01/06 04:46:42;;;;;;;5.93;1.08;;;;;;;;;;5089844;28;20097;-74
2022/01/06 04:49:08;;;;;;;12.57;1.98;;;;;;;;;;5073330;28;20457;-74
2022/01/06 04:51:35;;;;;;;4.28;0.70;;;;;;;;;;5089945;28;20127;-74
2022/01/06 04:54:01;;;;;;;12.45;2.22;;;;;;;;;;5073270;28;20156;-74
2022/01/06 04:56:27;;;;;;;5.78;1.10;;;;;;;;;;5089796;28;20499;-74
2022/01/06 04:58:53;;;;;;;10.90;1.40;;;;;;;;;;5089751;28;20044;-74
2022/01/06 05:01:19;;;;;;;11.85;1.27;;;;;;;;;;5089674;28;20044;-74
2022/01/06 05:03:45;;;;;;;5.72;1.20;;;;;;;;;;5089748;28;20036;-74
2022/01/06 05:06:11;;;;;;;12.07;1.30;;;;;;;;;;5073048;28;20040;-74
2022/01/06 05:08:37;;;;;;;12.18;1.67;;;;;;;;;;5089753;28;20051;-74
2022/01/06 05:11:03;;;;;;;10.80;1.30;;;;;;;;;;5089316;28;20050;-75
2022/01/06 05:13:29;;;;;;;6.43;1.30;;;;;;;;;;5085318;28;20078;-75
2022/01/06 05:15:55;;;;;;;13.27;1.55;;;;;;;;;;5069504;28;20074;-75
2022/01/06 05:18:21;;;;;;;11.25;2.08;;;;;;;;;;5071485;28;20041;-75
2022/01/06 05:20:48;;;;;;;12.10;1.52;;;;;;;;;;5073370;28;20055;-74
2022/01/06 05:23:14;;;;;;;17.00;2.75;;;;;;;;;;5073230;28;20040;-75
2022/01/06 05:25:40;;;;;;;10.45;1.58;;;;;;;;;;5073307;28;20480;-74
2022/01/06 05:28:06;;;;;;;13.27;1.65;;;;;;;;;;5083912;28;20040;-75
2022/01/06 05:30:32;;;;;;;16.02;1.65;;;;;;;;;;5093559;28;20533;-75
2022/01/06 05:32:58;;;;;;;10.10;1.52;;;;;;;;;;5093326;28;20038;-75
2022/01/06 05:35:24;;;;;;;12.27;1.45;;;;;;;;;;5090003;28;20119;-75
2022/01/06 05:37:50;;;;;;;9.23;1.67;;;;;;;;;;5077572;28;20044;-75
2022/01/06 05:40:16;;;;;;;9.93;1.30;;;;;;;;;;5072982;28;20049;-74
2022/01/06 05:42:42;;;;;;;12.38;2.00;;;;;;;;;;5073027;28;20044;-75
2022/01/06 05:45:09;;;;;;;10.30;1.38;;;;;;;;;;5073210;28;20540;-74
2022/01/06 05:47:35;;;;;;;12.63;2.03;;;;;;;;;;5073199;28;20392;-75
2022/01/06 05:50:02;;;;;;;13.27;1.75;;;;;;;;;;5073091;28;20044;-75
2022/01/06 05:52:28;;;;;;;15.57;1.75;;;;;;;;;;5072734;28;20047;-75
2022/01/06 05:54:54;;;;;;;12.23;1.42;;;;;;;;;;5073005;28;20040;-75
2022/01/06 05:57:20;;;;;;;6.50;1.45;;;;;;;;;;5073201;28;20389;-75
2022/01/06 05:59:46;;;;;;;13.45;2.13;;;;;;;;;;5072764;28;20071;-75
2022/01/06 06:02:12;;;;;;;8.05;1.85;;;;;;;;;;5073033;28;20523;-74
2022/01/06 06:04:37;;;;;;;4.50;1.25;;;;;;;;;;5098757;28;20077;-75
2022/01/06 06:07:04;;;;;;;5.60;1.48;;;;;;;;;;5113344;28;20040;-75
2022/01/06 06:09:30;;;;;;;6.82;1.35;;;;;;;;;;5094255;28;20055;-75
2022/01/06 06:11:56;;;;;;;6.82;1.80;;;;;;;;;;5081795;28;20053;-75
2022/01/06 06:14:22;;;;;;;10.65;1.65;;;;;;;;;;5081829;28;20411;-75
2022/01/06 06:16:48;;;;;;;9.45;1.73;;;;;;;;;;5083250;28;20044;-74
2022/01/06 06:19:14;;;;;;;10.80;1.73;;;;;;;;;;5081618;28;20102;-74
2022/01/06 06:21:40;;;;;;;8.73;1.38;;;;;;;;;;5082259;28;20488;-75
2022/01/06 06:24:06;;;;;;;17.42;2.38;;;;;;;;;;5083253;28;20043;-75
2022/01/06 06:26:32;;;;;;;7.30;2.13;;;;;;;;;;5081630;28;20044;-74
2022/01/06 06:28:58;;;;;;;10.52;1.27;;;;;;;;;;5080950;28;20396;-74
2022/01/06 06:31:24;;;;;;;16.85;1.80;;;;;;;;;;5082592;28;20043;-75
2022/01/06 06:33:50;;;;;;;7.45;1.05;;;;;;;;;;5084664;28;20028;-74
2022/01/06 06:36:16;;;;;;;26.70;2.25;;;;;;;;;;5081740;28;20040;-75
2022/01/06 06:38:42;;;;;;;14.32;2.53;;;;;;;;;;5085322;28;20126;-75
2022/01/06 06:41:08;;;;;;;6.65;1.58;;;;;;;;;;5092276;28;20122;-74
2022/01/06 06:43:34;;;;;;;8.15;1.52;;;;;;;;;;5092185;28;20036;-75
2022/01/06 06:46:00;;;;;;;11.45;1.63;;;;;;;;;;5092481;28;20093;-75
2022/01/06 06:48:26;;;;;;;9.32;1.50;;;;;;;;;;5092290;28;20040;-74
2022/01/06 06:50:52;;;;;;;13.80;1.73;;;;;;;;;;5092558;28;20075;-75
2022/01/06 06:53:18;;;;;;;14.48;1.70;;;;;;;;;;5092741;28;20078;-74
2022/01/06 06:55:45;;;;;;;6.35;1.70;;;;;;;;;;5093321;28;20476;-75
2022/01/06 06:58:11;;;;;;;7.18;1.42;;;;;;;;;;5092637;28;20677;-75
2022/01/06 07:00:37;;;;;;;11.50;1.48;;;;;;;;;;5092571;28;20082;-74
2022/01/06 07:03:03;;;;;;;9.05;1.27;;;;;;;;;;5091802;28;20123;-74
2022/01/06 07:05:29;;;;;;;9.20;1.13;;;;;;;;;;5111116;28;20118;-75
2022/01/06 07:07:55;;;;;;;10.00;1.77;;;;;;;;;;5095448;28;20036;-74
2022/01/06 07:10:21;;;;;;;9.48;1.80;;;;;;;;;;5111990;28;20245;-74
2022/01/06 07:12:47;;;;;;;14.07;2.13;;;;;;;;;;5112127;28;20066;-74
2022/01/06 07:15:14;;;;;;;7.63;1.27;;;;;;;;;;5112143;28;20483;-74
2022/01/06 07:17:41;;;;;;;7.35;2.03;;;;;;;;;;5112274;28;20483;-74
2022/01/06 07:20:07;;;;;;;7.85;1.52;;;;;;;;;;5112071;28;20100;-74
2022/01/06 07:22:33;;;;;;;8.98;1.20;;;;;;;;;;5112147;28;20043;-74
2022/01/06 07:25:01;;;;;;;9.68;2.05;;;;;;;;;;5111766;28;20031;-74
2022/01/06 07:27:27;;;;;;;8.55;2.95;;;;;;;;;;5095140;28;20097;-74
2022/01/06 07:29:53;;;;;;;7.22;1.20;;;;;;;;;;5111737;28;20039;-74
2022/01/06 07:32:19;;;;;;;9.27;1.40;;;;;;;;;;5111756;28;20554;-74
2022/01/06 07:34:45;;;;;;;12.65;1.77;;;;;;;;;;5086223;28;20046;-75
2022/01/06 07:37:11;;;;;;;6.35;1.02;;;;;;;;;;5111945;28;20036;-75
2022/01/06 07:39:37;;;;;;;16.98;3.33;;;;;;;;;;5111726;28;20071;-75
2022/01/06 07:42:03;;;;;;;13.05;1.55;;;;;;;;;;5094608;28;20065;-74
2022/01/06 07:44:30;;;;;;;15.93;2.15;;;;;;;;;;5094539;28;20411;-74
2022/01/06 07:46:55;;;;;;;8.63;2.35;;;;;;;;;;5111663;28;20122;-75
2022/01/06 07:49:21;;;;;;;9.88;1.30;;;;;;;;;;5111593;28;20155;-74
2022/01/06 07:51:47;;;;;;;4.32;1.50;;;;;;;;;;5111308;28;20040;-75
2022/01/06 07:54:13;;;;;;;12.57;2.10;;;;;;;;;;5094185;28;20042;-75
2022/01/06 07:56:39;;;;;;;14.05;1.65;;;;;;;;;;5111166;28;20492;-75
2022/01/06 07:59:08;;;;;;;9.57;1.27;;;;;;;;;;5111138;28;20063;-74
2022/01/06 08:01:33;;;;;;;5.30;1.45;;;;;;;;;;5094131;28;20533;-74
2022/01/06 08:03:59;;;;;;;13.38;1.58;;;;;;;;;;5109603;28;20039;-74
2022/01/06 08:06:25;;;;;;;14.00;2.08;;;;;;;;;;5094230;28;20039;-75
2022/01/06 08:08:51;;;;;;;15.65;1.67;;;;;;;;;;5110992;28;20160;-75
2022/01/06 08:11:18;;;;;;;12.57;1.65;;;;;;;;;;5110846;28;20176;-74
2022/01/06 08:13:44;;;;;;;10.43;1.50;;;;;;;;;;5110980;28;20044;-74
2022/01/06 08:16:10;;;;;;;10.32;1.63;;;;;;;;;;5110928;28;20050;-74
2022/01/06 08:18:36;;;;;;;4.63;1.30;;;;;;;;;;5093902;28;20467;-75
2022/01/06 08:21:02;;;;;;;12.80;1.83;;;;;;;;;;5110754;28;20039;-75
2022/01/06 08:23:28;;;;;;;6.50;2.55;;;;;;;;;;5093904;28;20406;-75
2022/01/06 08:25:55;;;;;;;9.13;1.60;;;;;;;;;;5111045;28;20040;-76
2022/01/06 08:28:21;;;;;;;15.35;1.42;;;;;;;;;;5110765;28;20519;-74
2022/01/06 08:30:47;;;;;;;11.90;2.00;;;;;;;;;;5110874;28;20502;-74
2022/01/06 08:33:13;;;;;;;9.73;1.13;;;;;;;;;;5093857;28;20035;-75
2022/01/06 08:35:39;;;;;;;13.75;1.90;;;;;;;;;;5072774;28;20042;-75
2022/01/06 08:38:05;;;;;;;14.90;2.33;;;;;;;;;;5089632;28;20484;-75
2022/01/06 08:40:31;;;;;;;10.40;2.53;;;;;;;;;;5072306;28;20047;-74
2022/01/06 08:42:57;;;;;;;15.77;1.90;;;;;;;;;;5073184;28;20032;-75
2022/01/06 08:45:23;;;;;;;19.15;2.17;;;;;;;;;;5090403;28;20437;-74
2022/01/06 08:47:49;;;;;;;14.85;1.98;;;;;;;;;;5073587;28;20400;-75
2022/01/06 08:50:16;;;;;;;13.65;2.60;;;;;;;;;;5090475;28;20066;-74
2022/01/06 08:52:42;;;;;;;4.03;1.40;;;;;;;;;;5091327;28;20044;-74
2022/01/06 08:55:08;;;;;;;13.60;1.92;;;;;;;;;;5077650;28;20131;-75
2022/01/06 08:57:35;;;;;;;16.50;2.42;;;;;;;;;;5094535;28;20055;-75
2022/01/06 09:00:01;;;;;;;17.15;2.53;;;;;;;;;;5077398;28;20043;-75
2022/01/06 09:02:27;;;;;;;8.85;2.30;;;;;;;;;;5077401;28;20098;-75
2022/01/06 09:04:55;;;;;;;6.05;1.48;;;;;;;;;;5093379;28;20089;-75
2022/01/06 09:07:21;;;;;;;12.23;1.50;;;;;;;;;;5093566;28;20602;-75
2022/01/06 09:09:47;;;;;;;14.05;2.28;;;;;;;;;;5074299;28;20094;-74
2022/01/06 09:12:17;;;;;;;12.43;3.08;;;;;;;;;;5073660;28;20049;-74
2022/01/06 09:14:44;;;;;;;6.93;1.55;;;;;;;;;;5073985;28;20488;-74
2022/01/06 09:17:10;;;;;;;10.23;1.85;;;;;;;;;;5073822;28;20617;-74
2022/01/06 09:19:36;;;;;;;18.17;2.40;;;;;;;;;;5073705;28;20119;-74
2022/01/06 09:22:02;;;;;;;7.55;1.20;;;;;;;;;;5073596;28;20477;-73
2022/01/06 09:24:28;;;;;;;15.10;2.17;;;;;;;;;;5073744;28;20445;-74
2022/01/06 09:26:54;;;;;;;14.30;1.70;;;;;;;;;;5074013;28;20040;-74
2022/01/06 09:29:20;;;;;;;7.85;1.50;;;;;;;;;;5073478;28;20664;-74
2022/01/06 09:31:47;;;;;;;13.88;1.45;;;;;;;;;;5073683;28;20127;-74
2022/01/06 09:34:12;;;;;;;12.77;1.55;;;;;;;;;;5080401;28;20499;-74
2022/01/06 09:36:40;;;;;;;8.63;1.48;;;;;;;;;;5114089;28;20046;-74
2022/01/06 09:39:07;;;;;;;11.40;1.63;;;;;;;;;;5113895;28;20036;-75
2022/01/06 09:41:34;;;;;;;9.73;1.52;;;;;;;;;;5096946;28;20039;-75
2022/01/06 09:44:00;;;;;;;13.70;1.58;;;;;;;;;;5114088;28;20118;-75
2022/01/06 09:46:27;;;;;;;6.35;1.52;;;;;;;;;;5114105;28;20039;-74
2022/01/06 09:48:57;;;;;;;13.18;2.70;;;;;;;;;;5100704;28;20127;-75
2022/01/06 09:51:23;;;;;;;12.60;1.80;;;;;;;;;;5093632;28;20047;-74
2022/01/06 09:53:50;;;;;;;15.23;2.35;;;;;;;;;;5082475;28;20051;-74
2022/01/06 09:56:16;;;;;;;9.57;2.05;;;;;;;;;;5072811;28;20047;-75
2022/01/06 09:58:42;;;;;;;8.52;2.13;;;;;;;;;;5089798;28;20052;-74
2022/01/06 10:01:08;;;;;;;8.00;1.67;;;;;;;;;;5073058;28;20404;-75
2022/01/06 10:03:35;;;;;;;10.80;1.90;;;;;;;;;;5072557;28;20040;-75
2022/01/06 10:06:21;;;;;;;12.48;2.00;;;;;;;;;;5090472;28;20092;-75
2022/01/06 10:08:52;;;;;;;11.57;2.17;;;;;;;;;;5076428;28;20075;-74
2022/01/06 10:11:19;;;;;;;14.70;1.92;;;;;;;;;;5076481;28;20052;-75
2022/01/06 10:13:53;;;;;;;10.52;1.83;;;;;;;;;;5092950;28;20104;-74
2022/01/06 10:16:20;;;;;;;4.82;1.55;;;;;;;;;;5076377;28;20407;-75
2022/01/06 10:18:55;;;;;;;12.57;2.70;;;;;;;;;;5092748;28;20067;-74
2022/01/06 10:21:21;;;;;;;4.45;2.30;;;;;;;;;;5086806;28;20092;-75
2022/01/06 10:24:04;;;;;;;17.45;2.28;;;;;;;;;;5092774;28;20039;-74
2022/01/06 10:26:31;;;;;;;12.20;2.42;;;;;;;;;;5092742;28;20051;-74
2022/01/06 10:28:57;;;;;;;13.93;2.10;;;;;;;;;;5092849;28;20040;-75
2022/01/06 10:31:24;;;;;;;6.05;1.63;;;;;;;;;;5093051;28;20480;-74
2022/01/06 10:33:50;;;;;;;7.55;2.00;;;;;;;;;;5091994;28;20043;-74
2022/01/06 10:36:16;;;;;;;13.00;1.98;;;;;;;;;;5095014;28;20044;-75
2022/01/06 10:38:42;;;;;;;12.90;2.95;;;;;;;;;;5112677;28;20051;-75
2022/01/06 10:41:12;;;;;;;7.50;1.80;;;;;;;;;;5076380;28;20119;-75
2022/01/06 10:43:38;;;;;;;7.33;1.30;;;;;;;;;;5071964;28;20044;-75
2022/01/06 10:46:05;;;;;;;5.95;1.58;;;;;;;;;;5071804;28;20635;-75
2022/01/06 10:48:31;;;;;;;12.52;2.10;;;;;;;;;;5071931;28;20042;-75
2022/01/06 10:51:01;;;;;;;11.80;3.13;;;;;;;;;;5071909;28;20067;-76
2022/01/06 10:53:27;;;;;;;14.38;1.98;;;;;;;;;;5071527;28;20094;-75
2022/01/06 10:55:53;;;;;;;10.68;2.00;;;;;;;;;;5071914;28;20051;-75
2022/01/06 10:58:20;;;;;;;19.10;2.65;;;;;;;;;;5071732;28;20044;-74
2022/01/06 11:00:54;;;;;;;7.65;1.80;;;;;;;;;;5071852;28;20044;-75
2022/01/06 11:03:21;;;;;;;11.20;2.65;;;;;;;;;;5071470;28;20090;-75
2022/01/06 11:05:57;;;;;;;9.05;1.80;;;;;;;;;;5071240;28;20040;-75
2022/01/06 11:08:26;;;;;;;8.65;2.53;;;;;;;;;;5071283;28;20139;-75
2022/01/06 11:13:34;;;;;;;11.80;3.40;;;;;;;;;;5071224;28;20389;-76
2022/01/06 11:16:01;;;;;;;13.93;3.25;;;;;;;;;;5053929;28;20029;-75
2022/01/06 11:18:27;;;;;;;9.50;2.05;;;;;;;;;;5071189;28;20495;-76
2022/01/06 11:21:02;;;;;;;9.50;2.08;;;;;;;;;;5087014;28;20444;-75
2022/01/06 11:23:30;;;;;;;11.10;1.80;;;;;;;;;;5088743;28;20032;-75
2022/01/06 11:26:06;;;;;;;9.02;2.35;;;;;;;;;;5087884;28;20040;-75
2022/01/06 11:28:32;;;;;;;9.50;1.83;;;;;;;;;;5087610;28;20075;-75
2022/01/06 11:31:12;;;;;;;8.93;1.75;;;;;;;;;;5087482;28;20054;-76
2022/01/06 11:33:42;;;;;;;8.18;1.48;;;;;;;;;;5087520;28;20446;-75
2022/01/06 11:36:18;;;;;;;16.40;2.20;;;;;;;;;;5087545;28;20044;-75
2022/01/06 11:38:47;;;;;;;11.70;2.13;;;;;;;;;;5087547;28;20119;-75
2022/01/06 11:41:13;;;;;;;14.55;1.75;;;;;;;;;;5087465;28;20469;-76
2022/01/06 11:43:40;;;;;;;11.50;2.08;;;;;;;;;;5087201;28;20036;-75
2022/01/06 11:46:06;;;;;;;11.52;2.90;;;;;;;;;;5087464;28;20518;-74
2022/01/06 11:48:33;;;;;;;6.75;1.67;;;;;;;;;;5087548;28;20040;-75
2022/01/06 11:50:59;;;;;;;10.98;2.35;;;;;;;;;;5087092;28;20067;-75
2022/01/06 11:53:32;;;;;;;6.22;1.52;;;;;;;;;;5086792;28;20044;-76
2022/01/06 11:55:59;;;;;;;11.50;1.65;;;;;;;;;;5086888;28;20138;-75
2022/01/06 11:58:25;;;;;;;12.57;2.55;;;;;;;;;;5086763;28;20061;-75
2022/01/06 12:01:05;;;;;;;7.95;1.60;;;;;;;;;;5086926;28;20474;-76
2022/01/06 12:03:39;;;;;;;11.13;2.13;;;;;;;;;;5086671;28;20062;-76
2022/01/06 12:06:05;;;;;;;9.23;1.50;;;;;;;;;;5086890;28;20447;-75
2022/01/06 12:08:36;;;;;;;13.23;2.47;;;;;;;;;;5087448;28;20070;-76
2022/01/06 12:11:02;;;;;;;8.30;1.77;;;;;;;;;;5086566;28;20118;-76
2022/01/06 12:13:28;;;;;;;12.93;1.80;;;;;;;;;;5087072;28;20416;-75
2022/01/06 12:15:55;;;;;;;14.68;2.15;;;;;;;;;;5086453;28;20071;-75
2022/01/06 12:18:28;;;;;;;11.43;1.80;;;;;;;;;;5086616;28;20484;-75
2022/01/06 12:20:55;;;;;;;11.55;1.83;;;;;;;;;;5086648;28;20040;-75
2022/01/06 12:23:22;;;;;;;10.52;2.00;;;;;;;;;;5086565;28;20086;-76
2022/01/06 12:25:55;;;;;;;7.32;1.42;;;;;;;;;;5086661;28;20044;-75
2022/01/06 12:28:21;;;;;;;10.27;2.03;;;;;;;;;;5086403;28;20432;-75
2022/01/06 12:30:47;;;;;;;11.63;2.30;;;;;;;;;;5086598;28;20035;-76
2022/01/06 12:33:14;;;;;;;15.40;2.15;;;;;;;;;;5086547;28;20329;-75
2022/01/06 12:35:45;;;;;;;14.05;1.45;;;;;;;;;;5085178;28;20040;-75
2022/01/06 12:38:12;;;;;;;13.93;1.98;;;;;;;;;;5069598;28;20040;-76
2022/01/06 12:40:39;;;;;;;7.03;1.30;;;;;;;;;;5082795;28;20048;-75
2022/01/06 12:43:25;;;;;;;8.63;1.33;;;;;;;;;;5081706;28;20518;-75
2022/01/06 12:46:08;;;;;;;5.45;1.35;;;;;;;;;;5087818;28;20062;-76
2022/01/06 12:48:36;;;;;;;10.30;2.10;;;;;;;;;;5066711;28;20048;-77
2022/01/06 12:51:03;;;;;;;8.45;2.03;;;;;;;;;;5050545;28;20036;-75
2022/01/06 12:53:30;;;;;;;16.50;12.18;;;;;;;;;;5070836;28;20033;-76
2022/01/06 12:55:57;;;;;;;11.88;2.42;;;;;;;;;;5070593;28;20484;-76
2022/01/06 12:58:23;;;;;;;8.45;1.40;;;;;;;;;;5053674;28;20058;-75
2022/01/06 13:00:56;;;;;;;8.80;1.33;;;;;;;;;;5053506;28;20040;-76
2022/01/06 13:03:26;;;;;;;13.80;1.70;;;;;;;;;;5053585;28;20032;-76
2022/01/06 13:05:53;;;;;;;11.05;1.48;;;;;;;;;;5067021;28;20036;-76
2022/01/06 13:08:18;;;;;;;11.48;1.48;;;;;;;;;;5073340;28;20085;-76
2022/01/06 13:10:44;;;;;;;9.20;1.90;;;;;;;;;;5090270;28;20044;-76
2022/01/06 13:13:10;;;;;;;5.22;1.52;;;;;;;;;;5073116;28;20087;-76
2022/01/06 13:15:36;;;;;;;9.35;1.80;;;;;;;;;;5090021;28;20496;-76
2022/01/06 13:18:03;;;;;;;8.25;1.42;;;;;;;;;;5089837;28;20040;-76
2022/01/06 13:20:36;;;;;;;11.77;1.30;;;;;;;;;;5089805;28;20041;-76
2022/01/06 13:23:41;;;;;;;11.23;2.17;;;;;;;;;;5086740;28;20072;-76
2022/01/06 13:26:05;;;;;;;9.40;1.92;;;;;;;;;;5086445;28;20056;-75
2022/01/06 13:28:32;;;;;;;7.75;1.38;;;;;;;;;;5069609;28;20044;-76
2022/01/06 13:30:58;;;;;;;7.38;1.40;;;;;;;;;;5069820;28;20045;-76
2022/01/06 13:33:27;;;;;;;6.90;1.30;;;;;;;;;;5069606;28;20445;-76
2022/01/06 13:35:55;;;;;;;12.45;1.75;;;;;;;;;;5103688;28;20483;-75
2022/01/06 13:38:23;;;;;;;10.77;1.52;;;;;;;;;;5110534;28;20031;-76
2022/01/06 13:40:50;;;;;;;6.15;2.88;;;;;;;;;;5113802;28;20044;-76
2022/01/06 13:43:18;;;;;;;6.88;1.10;;;;;;;;;;5097103;28;20043;-74
2022/01/06 13:45:47;;;;;;;6.53;1.15;;;;;;;;;;5097023;28;20036;-75
2022/01/06 13:51:08;;;;;;;7.70;1.38;;;;;;;;;;5090300;28;20090;-75
2022/01/06 13:53:42;;;;;;;6.20;1.58;;;;;;;;;;5073417;28;20048;-75
2022/01/06 13:56:13;;;;;;;7.78;1.80;;;;;;;;;;5073133;28;20039;-75
2022/01/06 13:58:39;;;;;;;9.88;2.00;;;;;;;;;;5073445;28;20040;-75
2022/01/06 14:01:06;;;;;;;16.27;2.10;;;;;;;;;;5073006;28;20041;-76
2022/01/06 14:03:35;;;;;;;10.48;2.17;;;;;;;;;;5073945;28;20096;-75
2022/01/06 14:06:03;;;;;;;9.20;1.83;;;;;;;;;;5091310;28;20032;-75
2022/01/06 14:08:29;;;;;;;9.00;2.05;;;;;;;;;;5076141;28;20515;-76
2022/01/06 14:10:56;;;;;;;9.40;1.95;;;;;;;;;;5075869;28;20058;-75
2022/01/06 14:13:22;;;;;;;6.53;2.03;;;;;;;;;;5093559;28;20040;-77
2022/01/06 14:15:48;;;;;;;10.77;2.10;;;;;;;;;;5076979;28;20078;-75
2022/01/06 14:18:14;;;;;;;10.57;1.70;;;;;;;;;;5093835;28;20072;-76
2022/01/06 14:20:41;;;;;;;11.35;1.77;;;;;;;;;;5076678;28;20044;-75
2022/01/06 14:23:07;;;;;;;7.05;1.50;;;;;;;;;;5093375;28;20051;-75
2022/01/06 14:25:33;;;;;;;12.90;2.22;;;;;;;;;;5076684;28;20040;-75
2022/01/06 14:27:59;;;;;;;7.07;1.45;;;;;;;;;;5073223;28;20032;-77
2022/01/06 14:30:25;;;;;;;11.10;1.77;;;;;;;;;;5073676;28;20129;-74
2022/01/06 14:32:51;;;;;;;11.40;2.20;;;;;;;;;;5089123;28;20055;-75
2022/01/06 14:35:18;;;;;;;8.13;1.48;;;;;;;;;;5070374;28;20048;-75
2022/01/06 14:37:44;;;;;;;6.60;1.80;;;;;;;;;;5072307;28;20047;-76
2022/01/06 14:40:10;;;;;;;10.13;1.35;;;;;;;;;;5071847;28;20051;-76
2022/01/06 14:42:36;;;;;;;11.82;2.30;;;;;;;;;;5071498;28;20555;-75
2022/01/06 14:45:03;;;;;;;11.73;1.48;;;;;;;;;;5072202;28;20043;-76
2022/01/06 14:47:29;;;;;;;6.32;1.30;;;;;;;;;;5072116;28;20050;-76
2022/01/06 14:49:55;;;;;;;9.60;1.33;;;;;;;;;;5071544;28;20393;-77